sensor_id;sensor_type;location;lat;lon;timestamp;pressure;altitude;pressure_sealevel;temperature;humidity
38466;BME280;24244;51.950;5.902;2023-06-14T00:02:04;101379.91;;;21.31;35.65
38466;BME280;24244;51.950;5.902;2023-06-14T00:04:31;101389.31;;;21.28;35.64
38466;BME280;24244;51.950;5.902;2023-06-14T00:07:00;101393.56;;;21.24;35.73
38466;BME280;24244;51.950;5.902;2023-06-14T00:09:26;101391.34;;;21.21;35.99
38466;BME280;24244;51.950;5.902;2023-06-14T00:11:53;101389.09;;;21.18;35.84
38466;BME280;24244;51.950;5.902;2023-06-14T00:14:21;101392.28;;;21.15;35.88
38466;BME280;24244;51.950;5.902;2023-06-14T00:16:48;101387.56;;;21.10;35.98
38466;BME280;24244;51.950;5.902;2023-06-14T00:19:15;101395.94;;;21.09;35.99
38466;BME280;24244;51.950;5.902;2023-06-14T00:21:43;101387.47;;;21.05;36.08
38466;BME280;24244;51.950;5.902;2023-06-14T00:24:11;101389.03;;;21.01;36.16
38466;BME280;24244;51.950;5.902;2023-06-14T00:26:38;101399.84;;;21.01;36.24
38466;BME280;24244;51.950;5.902;2023-06-14T00:29:05;101398.44;;;20.99;36.31
38466;BME280;24244;51.950;5.902;2023-06-14T00:31:31;101395.97;;;20.97;36.32
38466;BME280;24244;51.950;5.902;2023-06-14T00:33:58;101394.56;;;20.95;36.37
38466;BME280;24244;51.950;5.902;2023-06-14T00:36:25;101386.94;;;20.92;36.44
38466;BME280;24244;51.950;5.902;2023-06-14T00:38:51;101390.91;;;20.89;36.46
38466;BME280;24244;51.950;5.902;2023-06-14T00:41:19;101400.34;;;20.87;36.76
38466;BME280;24244;51.950;5.902;2023-06-14T00:43:46;101402.47;;;20.85;36.71
38466;BME280;24244;51.950;5.902;2023-06-14T00:46:13;101402.94;;;20.82;36.84
38466;BME280;24244;51.950;5.902;2023-06-14T00:48:40;101404.25;;;20.79;36.90
38466;BME280;24244;51.950;5.902;2023-06-14T00:51:07;101398.00;;;20.79;36.93
38466;BME280;24244;51.950;5.902;2023-06-14T00:53:34;101406.56;;;20.76;36.85
38466;BME280;24244;51.950;5.902;2023-06-14T00:56:02;101401.91;;;20.71;37.03
38466;BME280;24244;51.950;5.902;2023-06-14T00:58:31;101402.34;;;20.68;37.14
38466;BME280;24244;51.950;5.902;2023-06-14T01:00:58;101407.75;;;20.68;37.24
38466;BME280;24244;51.950;5.902;2023-06-14T01:03:25;101403.44;;;20.67;37.30
38466;BME280;24244;51.950;5.902;2023-06-14T01:06:00;101403.44;;;20.67;37.40
38466;BME280;24244;51.950;5.902;2023-06-14T01:08:37;101412.59;;;20.66;37.47
38466;BME280;24244;51.950;5.902;2023-06-14T01:11:12;101407.44;;;20.64;37.49
38466;BME280;24244;51.950;5.902;2023-06-14T01:13:46;101413.56;;;20.60;37.57
38466;BME280;24244;51.950;5.902;2023-06-14T01:16:14;101409.78;;;20.61;37.82
38466;BME280;24244;51.950;5.902;2023-06-14T01:18:41;101415.66;;;20.58;37.71
38466;BME280;24244;51.950;5.902;2023-06-14T01:21:22;101400.75;;;20.55;37.85
38466;BME280;24244;51.950;5.902;2023-06-14T01:23:52;101409.06;;;20.54;38.00
38466;BME280;24244;51.950;5.902;2023-06-14T01:26:22;101405.81;;;20.52;38.20
38466;BME280;24244;51.950;5.902;2023-06-14T01:28:50;101406.25;;;20.49;38.09
38466;BME280;24244;51.950;5.902;2023-06-14T01:31:20;101405.44;;;20.48;38.20
38466;BME280;24244;51.950;5.902;2023-06-14T01:33:50;101412.50;;;20.49;38.20
38466;BME280;24244;51.950;5.902;2023-06-14T01:36:19;101403.78;;;20.47;38.31
38466;BME280;24244;51.950;5.902;2023-06-14T01:38:46;101402.41;;;20.45;38.19
38466;BME280;24244;51.950;5.902;2023-06-14T01:41:16;101413.44;;;20.43;38.23
38466;BME280;24244;51.950;5.902;2023-06-14T01:43:45;101412.84;;;20.41;38.46
38466;BME280;24244;51.950;5.902;2023-06-14T01:46:14;101410.84;;;20.37;38.56
38466;BME280;24244;51.950;5.902;2023-06-14T01:48:43;101406.72;;;20.34;38.56
38466;BME280;24244;51.950;5.902;2023-06-14T01:51:10;101406.38;;;20.30;38.58
38466;BME280;24244;51.950;5.902;2023-06-14T01:53:37;101404.13;;;20.27;38.71
38466;BME280;24244;51.950;5.902;2023-06-14T01:56:04;101397.31;;;20.25;38.81
38466;BME280;24244;51.950;5.902;2023-06-14T01:58:33;101399.22;;;20.24;38.82
38466;BME280;24244;51.950;5.902;2023-06-14T02:00:59;101406.47;;;20.24;38.91
38466;BME280;24244;51.950;5.902;2023-06-14T02:03:27;101405.88;;;20.22;38.89
38466;BME280;24244;51.950;5.902;2023-06-14T02:05:54;101399.88;;;20.20;38.95
38466;BME280;24244;51.950;5.902;2023-06-14T02:08:22;101404.69;;;20.18;38.97
38466;BME280;24244;51.950;5.902;2023-06-14T02:10:49;101396.84;;;20.16;39.05
38466;BME280;24244;51.950;5.902;2023-06-14T02:13:16;101392.72;;;20.14;39.21
38466;BME280;24244;51.950;5.902;2023-06-14T02:15:44;101394.84;;;20.12;39.32
38466;BME280;24244;51.950;5.902;2023-06-14T02:18:12;101396.38;;;20.08;39.52
38466;BME280;24244;51.950;5.902;2023-06-14T02:20:39;101394.94;;;20.05;39.68
38466;BME280;24244;51.950;5.902;2023-06-14T02:23:05;101400.84;;;20.02;39.59
38466;BME280;24244;51.950;5.902;2023-06-14T02:25:34;101401.88;;;20.01;39.70
38466;BME280;24244;51.950;5.902;2023-06-14T02:28:01;101398.59;;;19.99;39.72
38466;BME280;24244;51.950;5.902;2023-06-14T02:30:28;101398.59;;;19.99;39.74
38466;BME280;24244;51.950;5.902;2023-06-14T02:32:56;101401.50;;;19.98;39.77
38466;BME280;24244;51.950;5.902;2023-06-14T02:35:23;101402.34;;;19.98;39.84
38466;BME280;24244;51.950;5.902;2023-06-14T02:37:53;101409.84;;;19.96;39.86
38466;BME280;24244;51.950;5.902;2023-06-14T02:40:20;101404.91;;;19.93;39.96
38466;BME280;24244;51.950;5.902;2023-06-14T02:42:47;101406.44;;;19.89;40.17
38466;BME280;24244;51.950;5.902;2023-06-14T02:45:14;101406.06;;;19.85;40.17
38466;BME280;24244;51.950;5.902;2023-06-14T02:47:41;101407.34;;;19.83;40.32
38466;BME280;24244;51.950;5.902;2023-06-14T02:50:10;101409.47;;;19.81;40.16
38466;BME280;24244;51.950;5.902;2023-06-14T02:52:36;101408.28;;;19.77;40.32
38466;BME280;24244;51.950;5.902;2023-06-14T02:55:04;101406.63;;;19.76;40.29
38466;BME280;24244;51.950;5.902;2023-06-14T02:57:31;101417.91;;;19.73;40.52
38466;BME280;24244;51.950;5.902;2023-06-14T02:59:59;101412.72;;;19.71;40.54
38466;BME280;24244;51.950;5.902;2023-06-14T03:02:26;101412.13;;;19.69;40.59
38466;BME280;24244;51.950;5.902;2023-06-14T03:04:52;101408.84;;;19.67;40.68
38466;BME280;24244;51.950;5.902;2023-06-14T03:07:21;101419.03;;;19.65;40.72
38466;BME280;24244;51.950;5.902;2023-06-14T03:09:49;101414.09;;;19.62;40.79
38466;BME280;24244;51.950;5.902;2023-06-14T03:12:16;101422.44;;;19.61;40.76
38466;BME280;24244;51.950;5.902;2023-06-14T03:14:43;101430.38;;;19.55;40.76
38466;BME280;24244;51.950;5.902;2023-06-14T03:17:13;101427.91;;;19.54;40.96
38466;BME280;24244;51.950;5.902;2023-06-14T03:19:40;101431.06;;;19.51;41.08
38466;BME280;24244;51.950;5.902;2023-06-14T03:22:07;101434.22;;;19.48;40.99
38466;BME280;24244;51.950;5.902;2023-06-14T03:24:36;101436.31;;;19.46;41.03
38466;BME280;24244;51.950;5.902;2023-06-14T03:27:04;101438.41;;;19.44;41.16
38466;BME280;24244;51.950;5.902;2023-06-14T03:29:30;101441.53;;;19.41;41.15
38466;BME280;24244;51.950;5.902;2023-06-14T03:31:59;101439.88;;;19.40;41.30
38466;BME280;24244;51.950;5.902;2023-06-14T03:34:26;101448.78;;;19.40;41.34
38466;BME280;24244;51.950;5.902;2023-06-14T03:36:53;101443.41;;;19.40;41.36
38466;BME280;24244;51.950;5.902;2023-06-14T03:39:20;101446.09;;;19.40;41.17
38466;BME280;24244;51.950;5.902;2023-06-14T03:41:48;101445.75;;;19.37;41.39
38466;BME280;24244;51.950;5.902;2023-06-14T03:44:16;101450.75;;;19.33;41.58
38466;BME280;24244;51.950;5.902;2023-06-14T03:46:44;101448.53;;;19.30;41.62
38466;BME280;24244;51.950;5.902;2023-06-14T03:49:11;101457.66;;;19.29;41.76
38466;BME280;24244;51.950;5.902;2023-06-14T03:51:39;101456.84;;;19.29;41.75
38466;BME280;24244;51.950;5.902;2023-06-14T03:54:06;101461.63;;;19.27;41.91
38466;BME280;24244;51.950;5.902;2023-06-14T03:56:55;101456.69;;;19.24;41.97
38466;BME280;24244;51.950;5.902;2023-06-14T03:59:23;101461.28;;;19.23;42.01
38466;BME280;24244;51.950;5.902;2023-06-14T04:01:50;101464.19;;;19.22;42.08
38466;BME280;24244;51.950;5.902;2023-06-14T04:04:16;101462.53;;;19.21;42.22
38466;BME280;24244;51.950;5.902;2023-06-14T04:06:44;101467.09;;;19.20;42.27
38466;BME280;24244;51.950;5.902;2023-06-14T04:09:15;101461.34;;;19.16;42.25
38466;BME280;24244;51.950;5.902;2023-06-14T04:11:42;101468.41;;;19.17;42.46
38466;BME280;24244;51.950;5.902;2023-06-14T04:14:10;101475.66;;;19.17;42.36
38466;BME280;24244;51.950;5.902;2023-06-14T04:16:37;101478.56;;;19.15;42.44
38466;BME280;24244;51.950;5.902;2023-06-14T04:19:04;101482.31;;;19.14;42.45
38466;BME280;24244;51.950;5.902;2023-06-14T04:21:31;101485.69;;;19.10;42.47
38466;BME280;24244;51.950;5.902;2023-06-14T04:23:58;101488.59;;;19.08;42.80
38466;BME280;24244;51.950;5.902;2023-06-14T04:26:30;101488.81;;;19.07;42.83
38466;BME280;24244;51.950;5.902;2023-06-14T04:29:00;101485.28;;;19.06;42.89
38466;BME280;24244;51.950;5.902;2023-06-14T04:31:31;101500.63;;;19.06;42.87
38466;BME280;24244;51.950;5.902;2023-06-14T04:34:04;101499.00;;;19.05;42.96
38466;BME280;24244;51.950;5.902;2023-06-14T04:36:33;101493.59;;;19.05;43.18
38466;BME280;24244;51.950;5.902;2023-06-14T04:39:01;101496.28;;;19.05;43.09
38466;BME280;24244;51.950;5.902;2023-06-14T04:41:29;101493.03;;;19.03;43.23
38466;BME280;24244;51.950;5.902;2023-06-14T04:43:57;101488.69;;;19.02;43.26
38466;BME280;24244;51.950;5.902;2023-06-14T04:46:28;101494.88;;;19.02;43.38
38466;BME280;24244;51.950;5.902;2023-06-14T04:48:56;101508.38;;;19.02;43.35
38466;BME280;24244;51.950;5.902;2023-06-14T04:51:24;101510.22;;;19.02;43.51
38466;BME280;24244;51.950;5.902;2023-06-14T04:53:56;101502.75;;;19.04;43.56
38466;BME280;24244;51.950;5.902;2023-06-14T04:56:26;101508.50;;;19.07;43.58
38466;BME280;24244;51.950;5.902;2023-06-14T04:58:52;101509.34;;;19.08;43.51
38466;BME280;24244;51.950;5.902;2023-06-14T05:01:20;101513.06;;;19.07;43.76
38466;BME280;24244;51.950;5.902;2023-06-14T05:03:48;101512.25;;;19.06;43.68
38466;BME280;24244;51.950;5.902;2023-06-14T05:06:17;101508.72;;;19.06;43.63
38466;BME280;24244;51.950;5.902;2023-06-14T05:08:44;101515.16;;;19.05;43.79
38466;BME280;24244;51.950;5.902;2023-06-14T05:11:10;101513.28;;;19.05;44.02
38466;BME280;24244;51.950;5.902;2023-06-14T05:13:37;101514.94;;;19.06;43.97
38466;BME280;24244;51.950;5.902;2023-06-14T05:16:04;101517.63;;;19.06;44.02
38466;BME280;24244;51.950;5.902;2023-06-14T05:18:31;101521.97;;;19.07;43.96
38466;BME280;24244;51.950;5.902;2023-06-14T05:20:57;101517.41;;;19.08;43.97
38466;BME280;24244;51.950;5.902;2023-06-14T05:23:25;101517.19;;;19.09;44.27
38466;BME280;24244;51.950;5.902;2023-06-14T05:25:52;101523.63;;;19.08;44.21
38466;BME280;24244;51.950;5.902;2023-06-14T05:28:19;101526.09;;;19.10;44.16
38466;BME280;24244;51.950;5.902;2023-06-14T05:30:47;101523.16;;;19.11;44.14
38466;BME280;24244;51.950;5.902;2023-06-14T05:33:14;101528.56;;;19.11;44.23
38466;BME280;24244;51.950;5.902;2023-06-14T05:35:41;101524.81;;;19.12;44.28
38466;BME280;24244;51.950;5.902;2023-06-14T05:38:08;101530.81;;;19.14;44.35
38466;BME280;24244;51.950;5.902;2023-06-14T05:40:36;101538.47;;;19.17;44.44
38466;BME280;24244;51.950;5.902;2023-06-14T05:43:02;101540.09;;;19.18;44.55
38466;BME280;24244;51.950;5.902;2023-06-14T05:45:29;101541.53;;;19.21;44.60
38466;BME280;24244;51.950;5.902;2023-06-14T05:47:56;101543.41;;;19.21;44.48
38466;BME280;24244;51.950;5.902;2023-06-14T05:50:23;101540.69;;;19.21;44.57
38466;BME280;24244;51.950;5.902;2023-06-14T05:52:50;101538.63;;;19.23;44.59
38466;BME280;24244;51.950;5.902;2023-06-14T05:55:16;101542.75;;;19.25;44.64
38466;BME280;24244;51.950;5.902;2023-06-14T05:57:45;101547.06;;;19.26;44.65
38466;BME280;24244;51.950;5.902;2023-06-14T06:00:13;101553.06;;;19.28;44.84
38466;BME280;24244;51.950;5.902;2023-06-14T06:02:43;101558.22;;;19.30;44.91
38466;BME280;24244;51.950;5.902;2023-06-14T06:05:11;101560.47;;;19.33;44.85
38466;BME280;24244;51.950;5.902;2023-06-14T06:07:38;101560.03;;;19.36;44.87
38466;BME280;24244;51.950;5.902;2023-06-14T06:10:07;101566.03;;;19.38;44.84
38466;BME280;24244;51.950;5.902;2023-06-14T06:12:34;101558.53;;;19.40;44.98
38466;BME280;24244;51.950;5.902;2023-06-14T06:15:03;101558.69;;;19.45;45.03
38466;BME280;24244;51.950;5.902;2023-06-14T06:17:30;101570.69;;;19.49;44.82
38466;BME280;24244;51.950;5.902;2023-06-14T06:20:16;101563.00;;;19.52;44.96
38466;BME280;24244;51.950;5.902;2023-06-14T06:22:43;101572.47;;;19.55;44.96
38466;BME280;24244;51.950;5.902;2023-06-14T06:25:11;101573.09;;;19.57;44.93
38466;BME280;24244;51.950;5.902;2023-06-14T06:27:38;101566.19;;;19.61;45.04
38466;BME280;24244;51.950;5.902;2023-06-14T06:30:09;101573.84;;;19.64;44.95
38466;BME280;24244;51.950;5.902;2023-06-14T06:32:37;101580.41;;;19.68;44.82
38466;BME280;24244;51.950;5.902;2023-06-14T06:35:04;101575.63;;;19.70;44.81
38466;BME280;24244;51.950;5.902;2023-06-14T06:37:32;101576.59;;;19.76;44.66
38466;BME280;24244;51.950;5.902;2023-06-14T06:39:59;101578.00;;;19.78;44.79
38466;BME280;24244;51.950;5.902;2023-06-14T06:42:26;101576.75;;;19.81;44.96
38466;BME280;24244;51.950;5.902;2023-06-14T06:44:55;101584.97;;;19.86;44.59
38466;BME280;24244;51.950;5.902;2023-06-14T06:47:23;101595.69;;;19.92;44.58
38466;BME280;24244;51.950;5.902;2023-06-14T06:49:51;101588.75;;;19.97;44.47
38466;BME280;24244;51.950;5.902;2023-06-14T06:52:18;101590.19;;;19.99;44.46
38466;BME280;24244;51.950;5.902;2023-06-14T06:54:44;101596.56;;;20.05;44.37
38466;BME280;24244;51.950;5.902;2023-06-14T06:57:11;101599.41;;;20.10;44.40
38466;BME280;24244;51.950;5.902;2023-06-14T06:59:38;101601.19;;;20.16;44.20
38466;BME280;24244;51.950;5.902;2023-06-14T07:02:05;101609.41;;;20.21;44.19
38466;BME280;24244;51.950;5.902;2023-06-14T07:04:35;101609.31;;;20.27;44.27
38466;BME280;24244;51.950;5.902;2023-06-14T07:07:04;101603.22;;;20.32;44.25
38466;BME280;24244;51.950;5.902;2023-06-14T07:09:31;101609.63;;;20.38;44.14
38466;BME280;24244;51.950;5.902;2023-06-14T07:11:57;101614.09;;;20.44;44.00
38466;BME280;24244;51.950;5.902;2023-06-14T07:14:24;101617.75;;;20.49;43.94
38466;BME280;24244;51.950;5.902;2023-06-14T07:16:51;101617.06;;;20.54;43.99
38466;BME280;24244;51.950;5.902;2023-06-14T07:19:18;101612.63;;;20.59;43.90
38466;BME280;24244;51.950;5.902;2023-06-14T07:21:48;101615.44;;;20.64;43.73
38466;BME280;24244;51.950;5.902;2023-06-14T07:24:15;101620.16;;;20.69;43.74
38466;BME280;24244;51.950;5.902;2023-06-14T07:26:42;101619.22;;;20.75;43.58
38466;BME280;24244;51.950;5.902;2023-06-14T07:29:08;101619.13;;;20.82;43.52
38466;BME280;24244;51.950;5.902;2023-06-14T07:31:35;101624.06;;;20.85;43.46
38466;BME280;24244;51.950;5.902;2023-06-14T07:34:02;101629.59;;;20.90;43.35
38466;BME280;24244;51.950;5.902;2023-06-14T07:36:29;101623.50;;;20.94;43.31
38466;BME280;24244;51.950;5.902;2023-06-14T07:38:57;101632.53;;;21.00;43.21
38466;BME280;24244;51.950;5.902;2023-06-14T07:41:23;101627.25;;;21.05;43.17
38466;BME280;24244;51.950;5.902;2023-06-14T07:43:51;101626.31;;;21.11;43.16
38466;BME280;24244;51.950;5.902;2023-06-14T07:46:18;101628.13;;;21.17;43.13
38466;BME280;24244;51.950;5.902;2023-06-14T07:48:45;101628.00;;;21.24;42.98
38466;BME280;24244;51.950;5.902;2023-06-14T07:51:12;101628.94;;;21.29;42.87
38466;BME280;24244;51.950;5.902;2023-06-14T07:53:41;101628.22;;;21.34;42.52
38466;BME280;24244;51.950;5.902;2023-06-14T07:56:09;101628.59;;;21.37;42.51
38466;BME280;24244;51.950;5.902;2023-06-14T07:58:36;101632.22;;;21.43;42.28
38466;BME280;24244;51.950;5.902;2023-06-14T08:01:03;101620.69;;;21.47;42.20
38466;BME280;24244;51.950;5.902;2023-06-14T08:03:32;101631.63;;;21.53;42.20
38466;BME280;24244;51.950;5.902;2023-06-14T08:06:02;101635.25;;;21.58;41.96
38466;BME280;24244;51.950;5.902;2023-06-14T08:08:29;101624.53;;;21.63;41.82
38466;BME280;24244;51.950;5.902;2023-06-14T08:10:57;101623.81;;;21.68;41.69
38466;BME280;24244;51.950;5.902;2023-06-14T08:13:25;101623.94;;;21.73;41.64
38466;BME280;24244;51.950;5.902;2023-06-14T08:15:51;101625.09;;;21.77;41.47
38466;BME280;24244;51.950;5.902;2023-06-14T08:18:20;101623.31;;;21.82;41.35
38466;BME280;24244;51.950;5.902;2023-06-14T08:20:47;101611.78;;;21.87;41.17
38466;BME280;24244;51.950;5.902;2023-06-14T08:23:14;101624.00;;;21.89;41.17
38466;BME280;24244;51.950;5.902;2023-06-14T08:25:40;101620.81;;;21.93;41.08
38466;BME280;24244;51.950;5.902;2023-06-14T08:28:07;101622.25;;;21.95;41.02
38466;BME280;24244;51.950;5.902;2023-06-14T08:30:35;101625.31;;;21.99;40.81
38466;BME280;24244;51.950;5.902;2023-06-14T08:33:02;101632.97;;;22.02;40.67
38466;BME280;24244;51.950;5.902;2023-06-14T08:35:41;101636.00;;;22.05;40.45
38466;BME280;24244;51.950;5.902;2023-06-14T08:38:10;101628.56;;;22.12;40.40
38466;BME280;24244;51.950;5.902;2023-06-14T08:40:37;101631.34;;;22.17;40.35
38466;BME280;24244;51.950;5.902;2023-06-14T08:43:07;101620.63;;;22.22;40.08
38466;BME280;24244;51.950;5.902;2023-06-14T08:45:35;101628.59;;;22.29;40.25
38466;BME280;24244;51.950;5.902;2023-06-14T08:48:03;101625.41;;;22.32;40.11
38466;BME280;24244;51.950;5.902;2023-06-14T08:50:32;101614.09;;;22.35;39.95
38466;BME280;24244;51.950;5.902;2023-06-14T08:53:02;101624.19;;;22.40;39.76
38466;BME280;24244;51.950;5.902;2023-06-14T08:55:31;101621.59;;;22.45;39.56
38466;BME280;24244;51.950;5.902;2023-06-14T08:58:03;101619.78;;;22.50;39.43
38466;BME280;24244;51.950;5.902;2023-06-14T09:00:31;101615.50;;;22.54;39.19
38466;BME280;24244;51.950;5.902;2023-06-14T09:03:01;101623.41;;;22.56;39.00
38466;BME280;24244;51.950;5.902;2023-06-14T09:05:30;101614.53;;;22.60;39.00
38466;BME280;24244;51.950;5.902;2023-06-14T09:07:57;101619.47;;;22.63;38.96
38466;BME280;24244;51.950;5.902;2023-06-14T09:10:32;101622.25;;;22.69;38.86
38466;BME280;24244;51.950;5.902;2023-06-14T09:13:04;101623.41;;;22.73;38.78
38466;BME280;24244;51.950;5.902;2023-06-14T09:15:32;101624.34;;;22.78;38.71
38466;BME280;24244;51.950;5.902;2023-06-14T09:18:02;101616.28;;;22.83;38.87
38466;BME280;24244;51.950;5.902;2023-06-14T09:20:30;101619.09;;;22.88;38.96
38466;BME280;24244;51.950;5.902;2023-06-14T09:22:57;101622.13;;;22.92;38.80
38466;BME280;24244;51.950;5.902;2023-06-14T09:25:24;101613.00;;;22.98;38.54
38466;BME280;24244;51.950;5.902;2023-06-14T09:28:06;101624.75;;;23.03;38.81
38466;BME280;24244;51.950;5.902;2023-06-14T09:30:33;101617.25;;;23.11;38.87
38466;BME280;24244;51.950;5.902;2023-06-14T09:33:01;101630.91;;;23.16;38.60
38466;BME280;24244;51.950;5.902;2023-06-14T09:35:30;101628.84;;;23.23;38.25
38466;BME280;24244;51.950;5.902;2023-06-14T09:37:57;101636.25;;;23.27;38.22
38466;BME280;24244;51.950;5.902;2023-06-14T09:40:24;101626.03;;;23.34;38.12
38466;BME280;24244;51.950;5.902;2023-06-14T09:42:51;101635.31;;;23.38;38.24
38466;BME280;24244;51.950;5.902;2023-06-14T09:45:22;101622.06;;;23.42;38.20
38466;BME280;24244;51.950;5.902;2023-06-14T09:47:50;101622.66;;;23.44;38.01
38466;BME280;24244;51.950;5.902;2023-06-14T09:50:33;101623.56;;;23.50;38.11
38466;BME280;24244;51.950;5.902;2023-06-14T09:53:03;101618.44;;;23.53;37.99
38466;BME280;24244;51.950;5.902;2023-06-14T09:55:31;101622.06;;;23.59;37.90
38466;BME280;24244;51.950;5.902;2023-06-14T09:58:04;101622.94;;;23.64;38.05
38466;BME280;24244;51.950;5.902;2023-06-14T10:00:32;101637.41;;;23.70;37.85
38466;BME280;24244;51.950;5.902;2023-06-14T10:03:03;101632.84;;;23.75;37.85
38466;BME280;24244;51.950;5.902;2023-06-14T10:05:30;101622.31;;;23.79;37.80
38466;BME280;24244;51.950;5.902;2023-06-14T10:08:04;101616.13;;;23.84;37.76
38466;BME280;24244;51.950;5.902;2023-06-14T10:10:31;101623.78;;;23.87;37.56
38466;BME280;24244;51.950;5.902;2023-06-14T10:12:58;101627.03;;;23.89;37.27
38466;BME280;24244;51.950;5.902;2023-06-14T10:15:37;101622.75;;;23.93;37.16
38466;BME280;24244;51.950;5.902;2023-06-14T10:18:09;101623.88;;;23.97;36.90
38466;BME280;24244;51.950;5.902;2023-06-14T10:20:55;101619.59;;;24.01;36.79
38466;BME280;24244;51.950;5.902;2023-06-14T10:23:26;101618.25;;;24.03;36.44
38466;BME280;24244;51.950;5.902;2023-06-14T10:25:56;101619.06;;;24.04;36.48
38466;BME280;24244;51.950;5.902;2023-06-14T10:28:24;101623.75;;;24.08;36.26
38466;BME280;24244;51.950;5.902;2023-06-14T10:31:07;101622.41;;;24.11;36.44
38466;BME280;24244;51.950;5.902;2023-06-14T10:33:35;101624.63;;;24.14;36.45
38466;BME280;24244;51.950;5.902;2023-06-14T10:36:26;101604.81;;;24.18;36.22
38466;BME280;24244;51.950;5.902;2023-06-14T10:39:00;101619.59;;;24.23;36.16
38466;BME280;24244;51.950;5.902;2023-06-14T10:41:33;101614.19;;;24.28;35.90
38466;BME280;24244;51.950;5.902;2023-06-14T10:47:07;101622.44;;;24.38;35.91
38466;BME280;24244;51.950;5.902;2023-06-14T10:49:43;101621.94;;;24.41;35.87
38466;BME280;24244;51.950;5.902;2023-06-14T10:52:12;101619.50;;;24.44;35.63
38466;BME280;24244;51.950;5.902;2023-06-14T10:55:02;101617.38;;;24.46;35.55
38466;BME280;24244;51.950;5.902;2023-06-14T10:57:33;101625.25;;;24.48;35.55
38466;BME280;24244;51.950;5.902;2023-06-14T11:00:18;101600.56;;;24.49;35.35
38466;BME280;24244;51.950;5.902;2023-06-14T11:05:52;101614.19;;;24.54;35.30
38466;BME280;24244;51.950;5.902;2023-06-14T11:08:46;101609.06;;;24.58;35.45
38466;BME280;24244;51.950;5.902;2023-06-14T11:11:22;101620.53;;;24.65;35.48
38466;BME280;24244;51.950;5.902;2023-06-14T11:13:51;101599.91;;;24.69;35.05
38466;BME280;24244;51.950;5.902;2023-06-14T11:16:19;101614.81;;;24.67;34.66
38466;BME280;24244;51.950;5.902;2023-06-14T11:18:46;101614.56;;;24.68;34.78
38466;BME280;24244;51.950;5.902;2023-06-14T11:21:15;101624.41;;;24.74;34.94
38466;BME280;24244;51.950;5.902;2023-06-14T11:23:50;101615.50;;;24.79;34.76
38466;BME280;24244;51.950;5.902;2023-06-14T11:26:25;101619.81;;;24.80;34.87
38466;BME280;24244;51.950;5.902;2023-06-14T11:28:58;101623.09;;;24.82;34.65
38466;BME280;24244;51.950;5.902;2023-06-14T11:31:26;101605.97;;;24.81;34.74
38466;BME280;24244;51.950;5.902;2023-06-14T11:33:55;101616.59;;;24.83;34.72
38466;BME280;24244;51.950;5.902;2023-06-14T11:36:26;101613.38;;;24.86;34.64
38466;BME280;24244;51.950;5.902;2023-06-14T11:38:58;101606.81;;;24.87;34.52
38466;BME280;24244;51.950;5.902;2023-06-14T11:41:32;101623.50;;;24.90;34.57
38466;BME280;24244;51.950;5.902;2023-06-14T11:44:00;101620.25;;;24.93;34.46
38466;BME280;24244;51.950;5.902;2023-06-14T11:46:27;101610.16;;;24.94;34.20
38466;BME280;24244;51.950;5.902;2023-06-14T11:48:54;101617.81;;;24.97;34.36
38466;BME280;24244;51.950;5.902;2023-06-14T11:51:21;101618.13;;;25.01;34.66
38466;BME280;24244;51.950;5.902;2023-06-14T11:53:48;101620.06;;;25.05;34.86
38466;BME280;24244;51.950;5.902;2023-06-14T11:56:15;101621.97;;;25.10;34.67
38466;BME280;24244;51.950;5.902;2023-06-14T11:58:45;101619.84;;;25.12;34.44
38466;BME280;24244;51.950;5.902;2023-06-14T12:01:14;101628.00;;;25.12;34.32
38466;BME280;24244;51.950;5.902;2023-06-14T12:03:47;101623.94;;;25.14;34.23
38466;BME280;24244;51.950;5.902;2023-06-14T12:06:15;101616.03;;;25.13;34.23
38466;BME280;24244;51.950;5.902;2023-06-14T12:08:42;101622.84;;;25.15;34.37
38466;BME280;24244;51.950;5.902;2023-06-14T12:11:12;101630.19;;;25.15;34.18
38466;BME280;24244;51.950;5.902;2023-06-14T12:13:40;101618.78;;;25.18;34.23
38466;BME280;24244;51.950;5.902;2023-06-14T12:16:09;101624.25;;;25.23;34.14
38466;BME280;24244;51.950;5.902;2023-06-14T12:18:38;101619.63;;;25.23;33.96
38466;BME280;24244;51.950;5.902;2023-06-14T12:21:08;101620.69;;;25.22;34.09
38466;BME280;24244;51.950;5.902;2023-06-14T12:23:39;101607.66;;;25.24;34.17
38466;BME280;24244;51.950;5.902;2023-06-14T12:26:06;101603.84;;;25.25;34.16
38466;BME280;24244;51.950;5.902;2023-06-14T12:28:37;101599.81;;;25.28;34.29
38466;BME280;24244;51.950;5.902;2023-06-14T12:31:03;101605.53;;;25.31;34.22
38466;BME280;24244;51.950;5.902;2023-06-14T12:33:31;101606.38;;;25.37;34.33
38466;BME280;24244;51.950;5.902;2023-06-14T12:35:59;101612.63;;;25.38;34.34
38466;BME280;24244;51.950;5.902;2023-06-14T12:38:26;101612.38;;;25.39;34.36
38466;BME280;24244;51.950;5.902;2023-06-14T12:40:53;101612.94;;;25.41;34.23
38466;BME280;24244;51.950;5.902;2023-06-14T12:43:21;101613.19;;;25.40;34.20
38466;BME280;24244;51.950;5.902;2023-06-14T12:45:48;101600.97;;;25.42;34.26
38466;BME280;24244;51.950;5.902;2023-06-14T12:48:15;101606.16;;;25.49;34.53
38466;BME280;24244;51.950;5.902;2023-06-14T12:50:43;101606.19;;;25.54;34.46
38466;BME280;24244;51.950;5.902;2023-06-14T12:53:10;101604.31;;;25.59;34.68
38466;BME280;24244;51.950;5.902;2023-06-14T12:55:37;101617.69;;;25.66;34.63
38466;BME280;24244;51.950;5.902;2023-06-14T12:58:04;101613.63;;;25.68;34.35
38466;BME280;24244;51.950;5.902;2023-06-14T13:00:31;101624.81;;;25.72;34.53
38466;BME280;24244;51.950;5.902;2023-06-14T13:02:58;101614.47;;;25.74;34.54
38466;BME280;24244;51.950;5.902;2023-06-14T13:05:25;101613.38;;;25.75;34.54